Hines, West Virginia
Current Conditions -  °F | °C
As of 11:15 PM on Tuesday 21 Oct 2014 (Local Time) from KLWB Reporting Station
Overcast Overcast  
Wind Chill: 43°   Ceiling: 2300
Heat Index: 46°   Visibility: 10mi
Dew Point: 38°   Wind: 7mph
Humidity: 74%   Direction: 340°NNW
Pressure: 30.02"   Gusts: NA
Location:  37.98°N, 80.72°W
Report Text: KLWB 220315Z AUTO 34006KT 10SM BKN023 BKN030 OVC090 08/04 A3002 RMK AO2 T00800036
Loading
Personal Weather Stations






























Interactive Weather Map
Tropical Storm Tracking
New forecast layout! Learn more

10-Day Weather Forecast

Advertisements
Track Severe Weather on mobile